デンパサール の空港の天気 - METARとTAF

デンパサール国際空港 ( WADD / DPS ) - インドネシア バリ島デンパサール
飛行場実況気象(Metar)
観測時間-
風向・風速- -
視程-
天気現象-
-
気温-
湿度-
気圧-
METAR-
過去の天気等 Google飛行場航空写真 Wunderground天気予報

過去48時間のMETAR

飛行場予報(TAF)
発表時間: 5/22 01:00 WITA (5/21 17:00 UTC)
予報対象時間: 22日2時 WITA ~ 23日2時 WITA
風向・風速東 5m/s
視程10km以上
全天の4割程度の雲 雲底高度 520m
TAF WADD 211700Z 2118/2218 10010KT 9999 SCT017